createdAt,value
2023-01-06T00:01:14.333Z,99806.66
2023-01-06T00:05:17.696Z,99806.66
2023-01-06T00:09:27.816Z,99799.06
2023-01-06T00:13:33.574Z,99789.75
2023-01-06T00:17:36.690Z,99773.88
2023-01-06T00:21:42.599Z,99786.03
2023-01-06T00:25:52.032Z,99791.56
2023-01-06T00:29:58.458Z,99785.22
2023-01-06T00:34:05.253Z,99790.28
2023-01-06T00:38:12.280Z,99783.75
2023-01-06T00:42:19.970Z,99800.84
2023-01-06T00:46:27.133Z,99790.19
2023-01-06T00:50:34.648Z,99782.03
2023-01-06T00:54:38.395Z,99773.63
2023-01-06T00:58:47.335Z,99778.59
2023-01-06T01:02:56.663Z,99790.84
2023-01-06T01:07:05.021Z,99788.22
2023-01-06T01:11:11.162Z,99792.69
2023-01-06T01:15:20.760Z,99790.06
2023-01-06T01:19:32.820Z,99792.13
2023-01-06T01:23:39.824Z,99784.28
2023-01-06T01:27:48.963Z,99783.94
2023-01-06T01:31:56.803Z,99786.72
2023-01-06T01:36:13.797Z,99784.28
2023-01-06T01:40:38.206Z,99780.59
2023-01-06T01:45:03.758Z,99785.88
2023-01-06T01:49:21.245Z,99768.41
2023-01-06T01:53:36.547Z,99798.03
2023-01-06T01:57:42.705Z,99788.03
2023-01-06T02:01:46.533Z,99792.03
2023-01-06T02:05:53.451Z,99800.38
2023-01-06T02:10:05.663Z,99802.53
2023-01-06T02:14:12.201Z,99797.09
2023-01-06T02:18:27.148Z,99799.75
2023-01-06T02:22:46.838Z,99778.09
2023-01-06T02:27:17.647Z,99793.84
2023-01-06T02:31:39.411Z,99786.22
2023-01-06T02:35:52.304Z,99789.78
2023-01-06T02:40:09.230Z,99767.06
2023-01-06T02:44:19.512Z,99768.09
2023-01-06T02:48:28.636Z,99771.22
2023-01-06T02:52:43.717Z,99768.00
2023-01-06T02:56:56.272Z,99766.00
2023-01-06T03:01:03.638Z,99767.25
2023-01-06T03:05:11.212Z,99770.53
2023-01-06T03:09:15.891Z,99764.38
2023-01-06T03:13:24.624Z,99765.66
2023-01-06T03:17:28.166Z,99760.72
2023-01-06T03:21:38.876Z,99759.41
2023-01-06T03:25:42.522Z,99747.47
2023-01-06T03:29:45.614Z,99737.28
2023-01-06T03:33:55.737Z,99737.28
2023-01-06T03:38:00.813Z,99736.69
2023-01-06T03:42:36.281Z,99723.31
2023-01-06T03:46:42.549Z,99720.59
2023-01-06T03:50:50.102Z,99708.44
2023-01-06T03:54:57.724Z,99720.53
2023-01-06T03:59:04.867Z,99720.38
2023-01-06T04:03:09.797Z,99719.19
2023-01-06T04:07:16.434Z,99708.38
2023-01-06T04:11:38.685Z,99701.56
2023-01-06T04:15:43.014Z,99712.75
2023-01-06T04:19:46.446Z,99732.78
2023-01-06T04:23:49.930Z,99716.63
2023-01-06T04:27:58.444Z,99711.38
2023-01-06T04:32:02.606Z,99703.44
2023-01-06T04:36:06.100Z,99718.91
2023-01-06T04:40:11.236Z,99719.34
2023-01-06T04:44:16.190Z,99713.41
2023-01-06T04:48:19.184Z,99712.59
2023-01-06T04:52:22.070Z,99703.53
2023-01-06T04:56:26.884Z,99704.78
2023-01-06T05:00:31.889Z,99699.75
2023-01-06T05:04:47.035Z,99712.47
2023-01-06T05:08:50.637Z,99706.25
2023-01-06T05:12:54.071Z,99727.28
2023-01-06T05:16:59.111Z,99730.53
2023-01-06T05:21:02.059Z,99713.41
2023-01-06T05:25:07.113Z,99720.38
2023-01-06T05:29:20.953Z,99705.50
2023-01-06T05:33:25.697Z,99704.13
2023-01-06T05:37:29.309Z,99720.75
2023-01-06T05:41:32.837Z,99730.25
2023-01-06T05:45:36.243Z,99716.28
2023-01-06T05:49:41.371Z,99717.38
2023-01-06T05:53:49.858Z,99726.34
2023-01-06T05:57:56.143Z,99706.69
2023-01-06T06:02:03.119Z,99724.84
2023-01-06T06:06:19.857Z,99731.13
2023-01-06T06:10:23.900Z,99735.75
2023-01-06T06:14:29.329Z,99739.63
2023-01-06T06:18:46.491Z,99742.94
2023-01-06T06:22:55.242Z,99736.78
2023-01-06T06:27:06.781Z,99733.78
2023-01-06T06:31:13.718Z,99745.34
2023-01-06T06:35:34.668Z,99736.50
2023-01-06T06:39:46.049Z,99746.94
2023-01-06T06:43:50.465Z,99744.09
2023-01-06T06:47:56.260Z,99759.31
2023-01-06T06:52:00.148Z,99758.28
2023-01-06T06:56:08.771Z,99753.25
2023-01-06T07:00:16.869Z,99751.78
2023-01-06T07:04:24.360Z,99755.22
2023-01-06T07:08:33.975Z,99740.06
2023-01-06T07:12:57.528Z,99755.09
2023-01-06T07:17:03.741Z,99755.72
2023-01-06T07:21:13.594Z,99755.81
2023-01-06T07:25:24.253Z,99760.50
2023-01-06T07:29:30.474Z,99773.91
2023-01-06T07:33:35.168Z,99775.03
2023-01-06T07:37:39.356Z,99776.06
2023-01-06T07:41:42.759Z,99781.88
2023-01-06T07:45:55.818Z,99783.66
2023-01-06T07:50:02.210Z,99777.34
2023-01-06T07:54:06.057Z,99780.00
2023-01-06T07:58:22.089Z,99782.19
2023-01-06T08:02:32.587Z,99787.38
2023-01-06T08:06:37.831Z,99799.16
2023-01-06T08:10:46.725Z,99789.19
2023-01-06T08:14:56.892Z,99802.22
2023-01-06T08:19:04.084Z,99795.63
2023-01-06T08:23:09.619Z,99778.59
2023-01-06T08:27:19.139Z,99774.34
2023-01-06T08:31:28.352Z,99777.75
2023-01-06T08:35:45.323Z,99768.81
2023-01-06T08:40:02.217Z,99769.75
2023-01-06T08:44:14.870Z,99767.19
2023-01-06T08:48:26.594Z,99774.66
2023-01-06T08:52:37.187Z,99778.84
2023-01-06T08:56:43.823Z,99777.56
2023-01-06T09:00:54.234Z,99783.56
2023-01-06T09:04:58.954Z,99777.03
2023-01-06T09:09:08.200Z,99782.00
2023-01-06T09:17:36.995Z,99775.50
2023-01-06T09:21:46.386Z,99776.44
2023-01-06T09:26:09.783Z,99791.25
2023-01-06T09:30:39.060Z,99784.22
2023-01-06T09:34:42.081Z,99768.81
2023-01-06T09:38:49.694Z,99750.03
2023-01-06T09:43:04.383Z,99784.78
2023-01-06T09:47:16.598Z,99807.66
2023-01-06T09:51:27.433Z,99803.84
2023-01-06T09:55:34.534Z,99819.16
2023-01-06T09:59:50.455Z,99816.31
2023-01-06T10:03:54.733Z,99813.94
2023-01-06T10:08:05.563Z,99816.19
2023-01-06T10:12:22.781Z,99820.31
2023-01-06T10:16:39.015Z,99797.78
2023-01-06T10:20:51.842Z,99815.31
2023-01-06T10:24:56.352Z,99803.34
2023-01-06T10:29:19.177Z,99802.13
2023-01-06T10:37:39.388Z,99814.50
2023-01-06T10:42:18.848Z,99816.63
2023-01-06T10:46:26.706Z,99802.13
2023-01-06T10:50:47.113Z,99767.84
2023-01-06T10:54:56.327Z,99800.78
2023-01-06T10:59:05.771Z,99782.72
2023-01-06T11:03:32.866Z,99796.78
2023-01-06T11:07:49.663Z,99800.19
2023-01-06T11:12:00.324Z,99800.78
2023-01-06T11:16:07.926Z,99792.06
2023-01-06T11:20:41.704Z,99793.69
2023-01-06T11:24:56.522Z,99789.63
2023-01-06T11:29:25.343Z,99781.97
2023-01-06T11:33:32.219Z,99777.00
2023-01-06T11:37:44.114Z,99759.88
2023-01-06T11:41:52.618Z,99757.13
2023-01-06T11:46:01.464Z,99770.09
2023-01-06T11:50:06.189Z,99764.72
2023-01-06T11:54:27.488Z,99760.56
2023-01-06T11:58:41.004Z,99740.72
2023-01-06T12:02:53.616Z,99744.97
2023-01-06T12:07:00.604Z,99747.47
2023-01-06T12:11:08.589Z,99749.91
2023-01-06T12:15:14.895Z,99750.38
2023-01-06T12:19:23.960Z,99740.13
2023-01-06T12:23:33.027Z,99714.28
2023-01-06T12:27:41.564Z,99736.22
2023-01-06T12:31:57.734Z,99741.03
2023-01-06T12:36:02.747Z,99741.72
2023-01-06T12:40:13.817Z,99714.75
2023-01-06T12:44:22.133Z,99739.66
2023-01-06T12:48:36.432Z,99744.13
2023-01-06T12:52:44.726Z,99740.81
2023-01-06T12:57:01.101Z,99743.09
2023-01-06T13:01:17.561Z,99730.94
2023-01-06T13:05:31.260Z,99738.84
2023-01-06T13:09:44.309Z,99738.28
2023-01-06T13:13:59.796Z,99734.94
2023-01-06T13:18:16.224Z,99747.75
2023-01-06T13:22:25.194Z,99739.59
2023-01-06T13:26:43.353Z,99743.75
2023-01-06T13:31:26.726Z,99725.59
2023-01-06T13:36:10.361Z,99687.13
2023-01-06T13:40:19.947Z,99735.50
2023-01-06T13:44:30.492Z,99708.94
2023-01-06T13:49:08.919Z,99727.75
2023-01-06T13:53:28.700Z,99723.19
2023-01-06T13:57:39.701Z,99734.22
2023-01-06T14:01:45.087Z,99716.44
2023-01-06T14:05:54.250Z,99716.19
2023-01-06T14:10:00.691Z,99728.16
2023-01-06T14:14:12.258Z,99731.81
2023-01-06T14:18:38.999Z,99729.84
2023-01-06T14:22:43.957Z,99725.84
2023-01-06T14:26:58.982Z,99729.28
2023-01-06T14:31:48.874Z,99735.84
2023-01-06T14:36:04.491Z,99680.38
2023-01-06T14:40:10.477Z,99732.41
2023-01-06T14:44:30.345Z,99731.13
2023-01-06T14:48:41.380Z,99729.66
2023-01-06T14:52:56.334Z,99735.72
2023-01-06T14:57:01.137Z,99744.34
2023-01-06T15:01:08.728Z,99734.47
2023-01-06T15:05:19.943Z,99706.63
2023-01-06T15:09:27.645Z,99739.25
2023-01-06T15:13:32.632Z,99735.88
2023-01-06T15:17:36.467Z,99743.72
2023-01-06T15:21:45.427Z,99742.69
2023-01-06T15:25:52.982Z,99738.28
2023-01-06T15:29:58.861Z,99705.78
2023-01-06T15:34:03.765Z,99724.66
2023-01-06T15:38:28.945Z,99737.28
2023-01-06T15:42:39.502Z,99726.91
2023-01-06T15:46:43.565Z,99742.78
2023-01-06T15:50:47.241Z,99722.91
2023-01-06T15:54:54.953Z,99743.59
2023-01-06T15:59:01.416Z,99747.81
2023-01-06T16:03:06.167Z,99757.69
2023-01-06T16:07:26.662Z,99747.13
2023-01-06T16:11:51.377Z,99755.63
2023-01-06T16:15:59.639Z,99762.97
2023-01-06T16:20:04.822Z,99755.63
2023-01-06T16:24:16.231Z,99760.13
2023-01-06T16:28:28.882Z,99748.72
2023-01-06T16:32:38.511Z,99743.44
2023-01-06T16:36:43.322Z,99756.53
2023-01-06T16:40:48.114Z,99721.72
2023-01-06T16:45:01.412Z,99751.63
2023-01-06T16:49:10.837Z,99749.88
2023-01-06T16:53:18.564Z,99747.25
2023-01-06T16:57:23.832Z,99744.94
2023-01-06T17:01:37.628Z,99752.38
2023-01-06T17:05:43.214Z,99749.50
2023-01-06T17:09:46.285Z,99729.97
2023-01-06T17:13:54.047Z,99738.03
2023-01-06T17:17:59.236Z,99734.34
2023-01-06T17:22:14.648Z,99738.91
2023-01-06T17:26:20.148Z,99738.81
2023-01-06T17:30:23.202Z,99724.34
2023-01-06T17:34:31.797Z,99733.78
2023-01-06T17:38:36.607Z,99739.63
2023-01-06T17:42:42.434Z,99739.41
2023-01-06T17:46:45.840Z,99735.38
2023-01-06T17:50:54.190Z,99741.38
2023-01-06T17:55:18.044Z,99739.06
2023-01-06T17:59:23.187Z,99732.56
2023-01-06T18:03:27.548Z,99740.06
2023-01-06T18:07:30.598Z,99739.97
2023-01-06T18:11:36.286Z,99746.41
2023-01-06T18:15:39.404Z,99743.56
2023-01-06T18:19:42.668Z,99746.88
2023-01-06T18:23:47.412Z,99733.78
2023-01-06T18:27:52.408Z,99730.78
2023-01-06T18:31:55.703Z,99751.13
2023-01-06T18:36:04.818Z,99729.88
2023-01-06T18:40:11.025Z,99747.00
2023-01-06T18:44:20.648Z,99741.72
2023-01-06T18:48:29.875Z,99739.53
2023-01-06T18:52:43.845Z,99756.53
2023-01-06T18:56:46.829Z,99757.94
2023-01-06T19:00:54.092Z,99742.03
2023-01-06T19:04:57.312Z,99754.47
2023-01-06T19:09:03.155Z,99745.63
2023-01-06T19:13:11.719Z,99731.94
2023-01-06T19:17:23.410Z,99726.09
2023-01-06T19:21:26.330Z,99721.47
2023-01-06T19:25:34.692Z,99750.47
2023-01-06T19:29:37.688Z,99747.81
2023-01-06T19:33:44.936Z,99749.19
2023-01-06T19:37:48.153Z,99753.16
2023-01-06T19:41:58.328Z,99747.25
2023-01-06T19:46:04.207Z,99734.00
2023-01-06T19:50:20.260Z,99753.31
2023-01-06T19:54:28.122Z,99742.41
2023-01-06T19:58:36.561Z,99743.00
2023-01-06T20:02:45.370Z,99711.09
2023-01-06T20:06:49.963Z,99745.25
2023-01-06T20:10:53.098Z,99743.66
2023-01-06T20:15:06.962Z,99730.56
2023-01-06T20:19:10.980Z,99741.59
2023-01-06T20:23:16.200Z,99728.00
2023-01-06T20:27:19.270Z,99717.09
2023-01-06T20:31:22.397Z,99735.38
2023-01-06T20:35:26.691Z,99741.34
2023-01-06T20:39:31.194Z,99737.44
2023-01-06T20:43:34.383Z,99712.84
2023-01-06T20:47:37.879Z,99720.09
2023-01-06T20:51:41.945Z,99736.41
2023-01-06T20:55:47.195Z,99731.59
2023-01-06T20:59:51.067Z,99716.88
2023-01-06T21:03:53.755Z,99716.56
2023-01-06T21:07:58.404Z,99713.22
2023-01-06T21:12:03.247Z,99711.91
2023-01-06T21:16:06.616Z,99697.56
2023-01-06T21:20:12.138Z,99703.19
2023-01-06T21:24:15.607Z,99700.19
2023-01-06T21:28:20.096Z,99716.06
2023-01-06T21:32:23.348Z,99686.53
2023-01-06T21:36:26.873Z,99703.66
2023-01-06T21:40:30.849Z,99699.16
2023-01-06T21:44:43.630Z,99702.97
2023-01-06T21:48:49.246Z,99677.44
2023-01-06T21:52:56.679Z,99691.94
2023-01-06T21:57:00.700Z,99675.41
2023-01-06T22:01:10.321Z,99692.88
2023-01-06T22:05:15.186Z,99692.53
2023-01-06T22:09:27.941Z,99693.53
2023-01-06T22:13:33.631Z,99695.16
2023-01-06T22:17:41.309Z,99690.53
2023-01-06T22:21:52.057Z,99687.44
2023-01-06T22:25:58.380Z,99678.97
2023-01-06T22:30:01.811Z,99675.75
2023-01-06T22:34:17.167Z,99689.75
2023-01-06T22:38:20.710Z,99673.06
2023-01-06T22:42:34.897Z,99670.09
2023-01-06T22:46:38.281Z,99675.38
2023-01-06T22:50:43.403Z,99659.19
2023-01-06T22:54:46.427Z,99673.88
2023-01-06T22:58:49.895Z,99674.59
2023-01-06T23:02:55.034Z,99678.78
2023-01-06T23:07:03.269Z,99678.25
2023-01-06T23:11:09.933Z,99682.50
2023-01-06T23:15:14.118Z,99684.13
2023-01-06T23:19:19.375Z,99682.50
2023-01-06T23:23:26.390Z,99679.72
2023-01-06T23:27:31.546Z,99684.94
2023-01-06T23:31:38.775Z,99673.88
2023-01-06T23:35:43.163Z,99658.72
2023-01-06T23:39:50.293Z,99662.06
2023-01-06T23:43:54.365Z,99670.66
2023-01-06T23:47:57.524Z,99669.78
2023-01-06T23:52:02.020Z,99664.84
2023-01-06T23:56:12.283Z,99654.50
